createdAt,value
2023-01-13T00:00:05.585Z,94674.28
2023-01-13T00:02:37.054Z,94674.47
2023-01-13T00:05:05.274Z,94667.50
2023-01-13T00:07:32.629Z,94658.91
2023-01-13T00:10:01.007Z,94656.22
2023-01-13T00:12:28.483Z,94662.34
2023-01-13T00:14:56.055Z,94665.16
2023-01-13T00:17:23.496Z,94656.13
2023-01-13T00:19:50.541Z,94653.75
2023-01-13T00:22:17.786Z,94649.66
2023-01-13T00:24:46.178Z,94664.44
2023-01-13T00:27:18.287Z,94652.66
2023-01-13T00:29:45.318Z,94641.28
2023-01-13T00:32:12.249Z,94648.22
2023-01-13T00:34:46.757Z,94636.16
2023-01-13T00:37:13.558Z,94645.53
2023-01-13T00:40:00.163Z,94624.38
2023-01-13T00:42:27.335Z,94617.59
2023-01-13T00:44:55.716Z,94620.59
2023-01-13T00:47:29.685Z,94623.34
2023-01-13T00:50:02.282Z,94609.50
2023-01-13T00:52:36.572Z,94613.13
2023-01-13T00:55:04.335Z,94609.41
2023-01-13T00:57:31.037Z,94605.22
2023-01-13T00:59:58.076Z,94607.31
2023-01-13T01:02:30.911Z,94600.19
2023-01-13T01:04:58.077Z,94605.78
2023-01-13T01:07:25.161Z,94604.75
2023-01-13T01:09:52.572Z,94604.63
2023-01-13T01:12:19.680Z,94605.53
2023-01-13T01:14:48.568Z,94608.66
2023-01-13T01:17:19.180Z,94601.47
2023-01-13T01:19:47.690Z,94598.69
2023-01-13T01:22:21.705Z,94599.84
2023-01-13T01:24:49.656Z,94599.63
2023-01-13T01:27:16.691Z,94603.81
2023-01-13T01:29:43.459Z,94605.28
2023-01-13T01:32:10.465Z,94597.69
2023-01-13T01:34:37.203Z,94600.47
2023-01-13T01:37:04.311Z,94611.75
2023-01-13T01:39:31.453Z,94611.59
2023-01-13T01:42:04.376Z,94618.06
2023-01-13T01:44:50.758Z,94605.44
2023-01-13T01:47:18.116Z,94608.81
2023-01-13T01:49:51.671Z,94615.94
2023-01-13T01:52:40.755Z,94611.38
2023-01-13T01:55:42.830Z,94608.34
2023-01-13T01:58:22.492Z,94615.03
2023-01-13T02:00:53.277Z,94602.84
2023-01-13T02:03:20.280Z,94596.31
2023-01-13T02:05:47.277Z,94595.69
2023-01-13T02:08:20.121Z,94598.97
2023-01-13T02:10:50.472Z,94590.56
2023-01-13T02:13:17.751Z,94593.81
2023-01-13T02:15:56.914Z,94576.19
2023-01-13T02:19:02.128Z,94576.56
2023-01-13T02:22:15.329Z,94571.09
2023-01-13T02:25:11.935Z,94572.19
2023-01-13T02:28:03.567Z,94558.91
2023-01-13T02:30:37.293Z,94551.34
2023-01-13T02:33:23.199Z,94540.97
2023-01-13T02:35:59.908Z,94547.31
2023-01-13T02:38:39.521Z,94545.41
2023-01-13T02:41:13.337Z,94545.31
2023-01-13T02:43:40.366Z,94545.09
2023-01-13T02:46:20.619Z,94540.69
2023-01-13T02:48:47.715Z,94547.72
2023-01-13T02:51:19.004Z,94545.19
2023-01-13T02:54:12.964Z,94540.69
2023-01-13T02:56:44.462Z,94532.34
2023-01-13T02:59:11.500Z,94531.25
2023-01-13T03:01:43.884Z,94535.47
2023-01-13T03:04:15.661Z,94537.75
2023-01-13T03:07:00.886Z,94539.16
2023-01-13T03:09:39.577Z,94536.97
2023-01-13T03:12:54.888Z,94545.91
2023-01-13T03:15:29.731Z,94536.56
2023-01-13T03:18:19.965Z,94532.16
2023-01-13T03:21:02.710Z,94540.69
2023-01-13T03:23:50.352Z,94534.00
2023-01-13T03:26:50.656Z,94541.13
2023-01-13T03:29:20.909Z,94539.41
2023-01-13T03:31:56.395Z,94539.31
2023-01-13T03:34:25.417Z,94534.81
2023-01-13T03:36:57.284Z,94538.09
2023-01-13T03:39:30.059Z,94542.78
2023-01-13T03:42:07.698Z,94533.38
2023-01-13T03:45:05.598Z,94543.44
2023-01-13T03:47:50.881Z,94549.41
2023-01-13T03:50:22.549Z,94541.94
2023-01-13T03:52:51.983Z,94547.84
2023-01-13T03:55:22.531Z,94548.44
2023-01-13T03:58:10.973Z,94560.22
2023-01-13T04:00:58.800Z,94558.19
2023-01-13T04:03:51.105Z,94552.38
2023-01-13T04:06:37.166Z,94560.97
2023-01-13T04:09:21.046Z,94561.44
2023-01-13T04:12:07.669Z,94567.25
2023-01-13T04:14:34.763Z,94577.19
2023-01-13T04:17:07.533Z,94562.34
2023-01-13T04:19:34.554Z,94577.25
2023-01-13T04:22:02.347Z,94571.09
2023-01-13T04:24:29.377Z,94575.03
2023-01-13T04:26:59.009Z,94572.81
2023-01-13T04:29:27.198Z,94573.78
2023-01-13T04:31:54.309Z,94584.28
2023-01-13T04:34:21.416Z,94592.75
2023-01-13T04:36:48.605Z,94579.31
2023-01-13T04:39:21.493Z,94588.94
2023-01-13T04:41:48.582Z,94579.63
2023-01-13T04:44:18.477Z,94577.66
2023-01-13T04:46:47.539Z,94579.53
2023-01-13T04:49:14.569Z,94583.75
2023-01-13T04:51:41.387Z,94587.78
2023-01-13T04:54:10.229Z,94583.97
2023-01-13T04:56:38.258Z,94587.41
2023-01-13T04:59:07.198Z,94593.75
2023-01-13T05:01:34.349Z,94593.31
2023-01-13T05:04:01.389Z,94594.44
2023-01-13T05:06:31.140Z,94591.78
2023-01-13T05:08:58.256Z,94585.00
2023-01-13T05:11:28.581Z,94608.25
2023-01-13T05:13:56.137Z,94585.19
2023-01-13T05:16:23.227Z,94595.13
2023-01-13T05:19:15.013Z,94591.56
2023-01-13T05:21:44.568Z,94593.56
2023-01-13T05:24:12.769Z,94597.31
2023-01-13T05:26:49.406Z,94597.53
2023-01-13T05:29:17.395Z,94602.31
2023-01-13T05:31:44.391Z,94592.06
2023-01-13T05:34:11.381Z,94598.34
2023-01-13T05:36:39.804Z,94590.97
2023-01-13T05:39:09.735Z,94583.53
2023-01-13T05:41:36.495Z,94591.50
2023-01-13T05:44:03.526Z,94586.53
2023-01-13T05:46:30.347Z,94586.84
2023-01-13T05:49:00.062Z,94587.06
2023-01-13T05:51:28.587Z,94591.41
2023-01-13T05:53:55.676Z,94589.97
2023-01-13T05:56:25.217Z,94587.94
2023-01-13T05:58:52.022Z,94594.59
2023-01-13T06:01:19.128Z,94592.16
2023-01-13T06:03:45.944Z,94585.59
2023-01-13T06:06:16.431Z,94589.94
2023-01-13T06:08:45.258Z,94591.81
2023-01-13T06:11:14.946Z,94582.47
2023-01-13T06:13:42.533Z,94584.81
2023-01-13T06:16:10.713Z,94581.00
2023-01-13T06:18:38.738Z,94570.47
2023-01-13T06:21:05.661Z,94577.78
2023-01-13T06:23:32.455Z,94576.47
2023-01-13T06:26:15.459Z,94576.78
2023-01-13T06:28:42.254Z,94572.22
2023-01-13T06:31:10.298Z,94584.66
2023-01-13T06:33:38.009Z,94582.53
2023-01-13T06:36:09.069Z,94585.56
2023-01-13T06:38:37.442Z,94589.47
2023-01-13T06:41:10.228Z,94580.59
2023-01-13T06:43:37.969Z,94575.94
2023-01-13T06:46:05.317Z,94587.09
2023-01-13T06:48:33.919Z,94603.63
2023-01-13T06:51:05.424Z,94596.88
2023-01-13T06:53:32.242Z,94605.47
2023-01-13T06:55:59.331Z,94604.16
2023-01-13T06:58:26.072Z,94607.91
2023-01-13T07:00:52.841Z,94619.25
2023-01-13T07:03:20.170Z,94622.94
2023-01-13T07:05:57.351Z,94623.53
2023-01-13T07:08:24.120Z,94633.44
2023-01-13T07:10:51.304Z,94627.78
2023-01-13T07:13:18.206Z,94621.69
2023-01-13T07:15:53.309Z,94627.59
2023-01-13T07:18:20.106Z,94637.44
2023-01-13T07:20:52.658Z,94636.72
2023-01-13T07:23:19.710Z,94644.56
2023-01-13T07:25:46.758Z,94639.91
2023-01-13T07:28:16.063Z,94641.44
2023-01-13T07:30:43.106Z,94653.66
2023-01-13T07:33:10.195Z,94648.28
2023-01-13T07:35:37.275Z,94645.59
2023-01-13T07:38:04.253Z,94651.81
2023-01-13T07:40:31.306Z,94646.53
2023-01-13T07:43:03.674Z,94656.00
2023-01-13T07:45:40.397Z,94651.53
2023-01-13T07:48:07.508Z,94646.41
2023-01-13T07:50:34.606Z,94653.16
2023-01-13T07:53:01.714Z,94656.81
2023-01-13T07:55:44.910Z,94659.53
2023-01-13T07:58:12.956Z,94657.09
2023-01-13T08:00:40.404Z,94666.16
2023-01-13T08:03:13.700Z,94662.56
2023-01-13T08:05:42.061Z,94666.88
2023-01-13T08:08:09.013Z,94659.69
2023-01-13T08:10:35.981Z,94649.03
2023-01-13T08:13:10.439Z,94656.47
2023-01-13T08:15:40.190Z,94657.00
2023-01-13T08:18:11.147Z,94685.81
2023-01-13T08:20:39.051Z,94676.28
2023-01-13T08:23:07.941Z,94663.38
2023-01-13T08:25:34.999Z,94663.44
2023-01-13T08:28:02.435Z,94663.38
2023-01-13T08:30:30.435Z,94666.06
2023-01-13T08:33:04.722Z,94668.28
2023-01-13T08:35:31.801Z,94672.97
2023-01-13T08:37:58.844Z,94682.00
2023-01-13T08:40:25.891Z,94674.47
2023-01-13T08:42:59.294Z,94691.97
2023-01-13T08:45:28.963Z,94682.69
2023-01-13T08:47:56.211Z,94701.38
2023-01-13T08:50:23.198Z,94697.81
2023-01-13T08:52:50.279Z,94708.38
2023-01-13T08:55:17.129Z,94711.50
2023-01-13T08:57:50.955Z,94722.00
2023-01-13T09:00:18.950Z,94725.31
2023-01-13T09:02:46.030Z,94728.09
2023-01-13T09:05:13.072Z,94730.50
2023-01-13T09:07:40.088Z,94732.56
2023-01-13T09:10:08.133Z,94733.53
2023-01-13T09:12:35.250Z,94736.44
2023-01-13T09:15:02.428Z,94747.66
2023-01-13T09:17:29.701Z,94749.47
2023-01-13T09:19:57.888Z,94746.28
2023-01-13T09:22:27.645Z,94745.59
2023-01-13T09:24:54.630Z,94744.75
2023-01-13T09:27:21.383Z,94752.56
2023-01-13T09:29:48.874Z,94746.53
2023-01-13T09:32:16.111Z,94754.97
2023-01-13T09:34:43.240Z,94746.81
2023-01-13T09:37:11.968Z,94741.72
2023-01-13T09:39:39.809Z,94748.50
2023-01-13T09:42:26.912Z,94744.13
2023-01-13T09:45:13.379Z,94744.13
2023-01-13T09:47:44.587Z,94746.34
2023-01-13T09:50:35.267Z,94754.28
2023-01-13T09:53:02.247Z,94761.97
2023-01-13T09:55:48.907Z,94765.53
2023-01-13T09:58:18.881Z,94770.56
2023-01-13T10:00:50.336Z,94770.41
2023-01-13T10:03:33.505Z,94755.94
2023-01-13T10:06:12.314Z,94748.44
2023-01-13T10:08:40.352Z,94757.81
2023-01-13T10:11:24.386Z,94757.41
2023-01-13T10:13:59.106Z,94759.38
2023-01-13T10:16:35.448Z,94749.69
2023-01-13T10:19:20.918Z,94756.38
2023-01-13T10:22:03.382Z,94754.78
2023-01-13T10:24:45.381Z,94759.50
2023-01-13T10:27:27.968Z,94756.38
2023-01-13T10:29:54.826Z,94745.69
2023-01-13T10:32:22.544Z,94743.34
2023-01-13T10:34:50.912Z,94739.75
2023-01-13T10:37:26.297Z,94738.44
2023-01-13T10:39:56.946Z,94742.56
2023-01-13T10:42:23.892Z,94738.75
2023-01-13T10:44:51.610Z,94736.66
2023-01-13T10:47:35.932Z,94739.09
2023-01-13T10:50:09.638Z,94746.44
2023-01-13T10:52:58.163Z,94743.69
2023-01-13T10:55:34.375Z,94726.94
2023-01-13T10:58:18.644Z,94712.41
2023-01-13T11:00:45.763Z,94713.56
2023-01-13T11:03:22.613Z,94702.53
2023-01-13T11:05:54.859Z,94698.91
2023-01-13T11:08:26.837Z,94696.63
2023-01-13T11:10:55.417Z,94699.16
2023-01-13T11:13:40.377Z,94698.25
2023-01-13T11:16:14.656Z,94700.13
2023-01-13T11:18:45.774Z,94699.72
2023-01-13T11:21:22.879Z,94698.13
2023-01-13T11:24:26.221Z,94693.28
2023-01-13T11:26:59.493Z,94707.53
2023-01-13T11:29:57.210Z,94698.00
2023-01-13T11:32:24.062Z,94708.78
2023-01-13T11:35:17.921Z,94702.53
2023-01-13T11:37:47.751Z,94689.28
2023-01-13T11:40:40.633Z,94706.22
2023-01-13T11:43:38.533Z,94701.66
2023-01-13T11:46:06.759Z,94705.84
2023-01-13T11:48:37.359Z,94705.72
2023-01-13T11:51:15.446Z,94714.03
2023-01-13T11:54:05.528Z,94721.19
2023-01-13T11:57:14.689Z,94709.16
2023-01-13T11:59:56.326Z,94702.53
2023-01-13T12:02:50.531Z,94705.63
2023-01-13T12:05:36.731Z,94711.84
2023-01-13T12:08:20.719Z,94728.34
2023-01-13T12:11:09.551Z,94728.03
2023-01-13T12:14:01.152Z,94718.97
2023-01-13T12:16:31.724Z,94720.81
2023-01-13T12:19:24.561Z,94723.84
2023-01-13T12:22:15.625Z,94719.81
2023-01-13T12:24:57.580Z,94716.31
2023-01-13T12:27:47.788Z,94723.56
2023-01-13T12:30:35.705Z,94726.75
2023-01-13T12:33:18.788Z,94721.88
2023-01-13T12:36:15.233Z,94722.97
2023-01-13T12:38:46.180Z,94733.09
2023-01-13T12:41:19.796Z,94734.41
2023-01-13T12:43:48.785Z,94735.38
2023-01-13T12:46:19.025Z,94732.72
2023-01-13T12:48:49.576Z,94728.22
2023-01-13T12:51:37.941Z,94733.34
2023-01-13T12:54:53.923Z,94721.88
2023-01-13T12:57:29.190Z,94723.72
2023-01-13T13:00:05.305Z,94726.03
2023-01-13T13:02:36.456Z,94736.44
2023-01-13T13:05:28.215Z,94721.63
2023-01-13T13:08:16.163Z,94722.13
2023-01-13T13:10:47.812Z,94723.94
2023-01-13T13:13:39.513Z,94713.16
2023-01-13T13:16:49.084Z,94723.72
2023-01-13T13:19:25.138Z,94732.59
2023-01-13T13:22:12.297Z,94732.38
2023-01-13T13:24:48.554Z,94736.81
2023-01-13T13:27:24.655Z,94739.78
2023-01-13T13:30:00.930Z,94746.06
2023-01-13T13:32:42.712Z,94733.69
2023-01-13T13:35:46.872Z,94751.22
2023-01-13T13:38:40.859Z,94739.53
2023-01-13T13:41:17.055Z,94732.56
2023-01-13T13:43:44.989Z,94738.63
2023-01-13T13:46:28.802Z,94743.28
2023-01-13T13:48:55.568Z,94748.63
2023-01-13T13:51:30.827Z,94745.84
2023-01-13T13:53:58.231Z,94749.88
2023-01-13T13:56:26.886Z,94748.09
2023-01-13T13:58:55.267Z,94747.13
2023-01-13T14:01:25.891Z,94743.31
2023-01-13T14:04:13.891Z,94764.13
2023-01-13T14:07:05.004Z,94762.31
2023-01-13T14:09:41.080Z,94770.22
2023-01-13T14:12:19.061Z,94773.09
2023-01-13T14:14:46.655Z,94770.91
2023-01-13T14:17:25.813Z,94773.22
2023-01-13T14:20:06.125Z,94764.88
2023-01-13T14:22:32.839Z,94759.31
2023-01-13T14:25:02.598Z,94754.25
2023-01-13T14:27:29.671Z,94755.72
2023-01-13T14:29:58.293Z,94751.44
2023-01-13T14:32:35.707Z,94751.84
2023-01-13T14:35:06.102Z,94754.78
2023-01-13T14:37:40.455Z,94747.22
2023-01-13T14:40:33.769Z,94759.91
2023-01-13T14:43:03.614Z,94755.84
2023-01-13T14:45:30.501Z,94763.00
2023-01-13T14:48:07.656Z,94765.88
2023-01-13T14:50:34.373Z,94771.53
2023-01-13T14:53:01.121Z,94782.56
2023-01-13T14:55:34.467Z,94788.19
2023-01-13T14:58:21.970Z,94791.03
2023-01-13T15:00:50.433Z,94790.16
2023-01-13T15:03:18.658Z,94784.25
2023-01-13T15:05:53.601Z,94792.50
2023-01-13T15:08:31.750Z,94798.38
2023-01-13T15:11:03.249Z,94800.25
2023-01-13T15:13:32.216Z,94812.19
2023-01-13T15:16:00.098Z,94805.72
2023-01-13T15:18:26.877Z,94814.94
2023-01-13T15:20:53.583Z,94820.97
2023-01-13T15:23:21.343Z,94820.78
2023-01-13T15:25:51.171Z,94812.34
2023-01-13T15:28:25.044Z,94825.53
2023-01-13T15:30:52.763Z,94832.66
2023-01-13T15:33:20.460Z,94843.47
2023-01-13T15:35:51.104Z,94847.69
2023-01-13T15:38:22.789Z,94848.09
2023-01-13T15:40:50.498Z,94848.72
2023-01-13T15:43:18.619Z,94860.31
2023-01-13T15:45:45.788Z,94875.31
2023-01-13T15:48:13.084Z,94881.13
2023-01-13T15:50:46.342Z,94875.03
2023-01-13T15:53:14.427Z,94871.22
2023-01-13T15:58:24.536Z,94884.03
2023-01-13T16:00:51.310Z,94895.69
2023-01-13T16:03:18.211Z,94882.38
2023-01-13T16:05:44.951Z,94880.19
2023-01-13T16:08:15.687Z,94884.84
2023-01-13T16:10:43.006Z,94875.66
2023-01-13T16:13:09.720Z,94879.59
2023-01-13T16:15:42.896Z,94880.94
2023-01-13T16:18:16.160Z,94879.56
2023-01-13T16:20:43.036Z,94876.97
2023-01-13T16:23:10.308Z,94892.19
2023-01-13T16:25:37.095Z,94886.59
2023-01-13T16:28:04.113Z,94897.09
2023-01-13T16:30:32.879Z,94902.50
2023-01-13T16:33:00.540Z,94894.19
2023-01-13T16:35:27.603Z,94894.88
2023-01-13T16:37:57.541Z,94903.59
2023-01-13T16:40:31.833Z,94902.56
2023-01-13T16:42:58.750Z,94908.00
2023-01-13T16:45:25.485Z,94915.59
2023-01-13T16:47:52.967Z,94919.41
2023-01-13T16:50:40.586Z,94934.25
2023-01-13T16:53:11.251Z,94929.44
2023-01-13T16:55:38.593Z,94939.28
2023-01-13T16:58:05.662Z,94949.03
2023-01-13T17:00:33.525Z,94963.88
2023-01-13T17:03:00.627Z,94968.13
2023-01-13T17:05:27.426Z,94970.38
2023-01-13T17:07:57.053Z,94966.34
2023-01-13T17:10:26.495Z,94982.19
2023-01-13T17:12:54.010Z,94979.94
2023-01-13T17:15:23.343Z,94978.06
2023-01-13T17:17:50.153Z,94976.41
2023-01-13T17:20:19.644Z,94980.84
2023-01-13T17:22:57.720Z,94978.28
2023-01-13T17:25:24.830Z,94978.16
2023-01-13T17:27:56.661Z,94977.50
2023-01-13T17:30:24.146Z,94990.31
2023-01-13T17:32:51.188Z,94989.88
2023-01-13T17:35:27.158Z,94989.91
2023-01-13T17:37:55.036Z,94996.81
2023-01-13T17:40:22.358Z,94992.78
2023-01-13T17:42:49.578Z,94998.25
2023-01-13T17:45:17.522Z,94991.47
2023-01-13T17:47:45.189Z,94987.22
2023-01-13T17:50:17.050Z,94977.84
2023-01-13T17:52:43.753Z,94979.59
2023-01-13T17:55:10.870Z,94985.63
2023-01-13T17:57:38.105Z,94987.31
2023-01-13T18:00:05.897Z,94992.09
2023-01-13T18:02:33.195Z,94990.50
2023-01-13T18:05:00.263Z,94991.66
2023-01-13T18:07:27.182Z,94992.78
2023-01-13T18:09:54.445Z,95003.44
2023-01-13T18:12:21.445Z,94996.75
2023-01-13T18:14:49.745Z,95024.75
2023-01-13T18:17:16.934Z,95019.28
2023-01-13T18:19:44.428Z,95022.25
2023-01-13T18:22:14.578Z,95031.66
2023-01-13T18:24:41.622Z,95033.66
2023-01-13T18:27:14.909Z,95037.66
2023-01-13T18:29:41.654Z,95036.94
2023-01-13T18:32:08.824Z,95035.91
2023-01-13T18:35:04.961Z,95038.53
2023-01-13T18:37:32.836Z,95039.47
2023-01-13T18:39:59.843Z,95044.91
2023-01-13T18:42:26.912Z,95042.56
2023-01-13T18:44:53.626Z,95046.56
2023-01-13T18:47:20.546Z,95045.25
2023-01-13T18:49:47.362Z,95047.84
2023-01-13T18:52:14.853Z,95050.94
2023-01-13T18:54:42.592Z,95053.38
2023-01-13T18:57:09.798Z,95062.94
2023-01-13T18:59:40.983Z,95066.78
2023-01-13T19:02:14.433Z,95067.59
2023-01-13T19:04:41.209Z,95074.28
2023-01-13T19:07:07.934Z,95090.69
2023-01-13T19:09:34.734Z,95077.97
2023-01-13T19:12:04.308Z,95083.66
2023-01-13T19:14:32.015Z,95089.81
2023-01-13T19:17:02.471Z,95095.41
2023-01-13T19:19:32.321Z,95102.94
2023-01-13T19:22:01.925Z,95096.28
2023-01-13T19:24:28.607Z,95096.84
2023-01-13T19:26:55.920Z,95100.66
2023-01-13T19:29:23.742Z,95095.28
2023-01-13T19:31:50.407Z,95096.91
2023-01-13T19:34:18.700Z,95093.31
2023-01-13T19:36:45.626Z,95101.75
2023-01-13T19:39:12.633Z,95123.97
2023-01-13T19:41:39.621Z,95119.19
2023-01-13T19:44:06.677Z,95119.72
2023-01-13T19:46:33.703Z,95138.50
2023-01-13T19:49:00.752Z,95121.09
2023-01-13T19:53:04.286Z,95126.56
2023-01-13T19:54:27.500Z,95132.00
2023-01-13T19:56:54.213Z,95132.50
2023-01-13T19:59:22.362Z,95128.44
2023-01-13T20:01:51.901Z,95130.41
2023-01-13T20:04:18.928Z,95140.03
2023-01-13T20:06:45.695Z,95136.72
2023-01-13T20:09:13.256Z,95145.06
2023-01-13T20:11:39.925Z,95143.41
2023-01-13T20:14:26.471Z,95140.34
2023-01-13T20:16:56.105Z,95131.41
2023-01-13T20:19:23.340Z,95113.50
2023-01-13T20:21:51.307Z,95117.44
2023-01-13T20:24:18.408Z,95129.38
2023-01-13T20:26:45.504Z,95124.47
2023-01-13T20:29:12.294Z,95120.13
2023-01-13T20:31:43.312Z,95120.19
2023-01-13T20:34:10.880Z,95124.66
2023-01-13T20:36:38.409Z,95132.13
2023-01-13T20:39:06.081Z,95145.91
2023-01-13T20:41:32.758Z,95143.31
2023-01-13T20:43:59.775Z,95142.66
2023-01-13T20:46:29.392Z,95139.72
2023-01-13T20:48:56.110Z,95153.78
2023-01-13T20:51:26.294Z,95148.03
2023-01-13T20:53:56.287Z,95141.16
2023-01-13T20:56:23.322Z,95136.25
2023-01-13T20:58:52.549Z,95149.41
2023-01-13T21:01:22.337Z,95154.97
2023-01-13T21:03:54.854Z,95153.41
2023-01-13T21:06:21.954Z,95150.97
2023-01-13T21:08:49.795Z,95157.31
2023-01-13T21:11:16.832Z,95156.22
2023-01-13T21:13:44.029Z,95166.88
2023-01-13T21:16:14.174Z,95164.88
2023-01-13T21:18:40.976Z,95163.94
2023-01-13T21:21:08.664Z,95152.25
2023-01-13T21:23:35.716Z,95151.41
2023-01-13T21:26:04.897Z,95141.56
2023-01-13T21:28:31.891Z,95140.59
2023-01-13T21:31:05.918Z,95144.44
2023-01-13T21:33:32.619Z,95148.19
2023-01-13T21:36:06.957Z,95151.28
2023-01-13T21:38:33.967Z,95139.66
2023-01-13T21:41:02.430Z,95140.97
2023-01-13T21:43:29.386Z,95137.66
2023-01-13T21:45:56.511Z,95140.78
2023-01-13T21:48:23.514Z,95138.25
2023-01-13T21:50:50.556Z,95124.00
2023-01-13T21:53:17.630Z,95140.72
2023-01-13T21:55:44.671Z,95139.47
2023-01-13T21:58:13.328Z,95145.22
2023-01-13T22:00:42.667Z,95150.78
2023-01-13T22:03:09.672Z,95158.19
2023-01-13T22:05:39.306Z,95163.66
2023-01-13T22:08:10.891Z,95158.75
2023-01-13T22:10:38.103Z,95151.91
2023-01-13T22:13:04.792Z,95169.53
2023-01-13T22:15:56.660Z,95167.56
2023-01-13T22:18:23.719Z,95163.91
2023-01-13T22:20:50.517Z,95171.59
2023-01-13T22:23:17.569Z,95169.53
2023-01-13T22:25:44.327Z,95176.88
2023-01-13T22:28:11.493Z,95168.53
2023-01-13T22:30:38.980Z,95170.00
2023-01-13T22:33:06.022Z,95160.97
2023-01-13T22:35:33.072Z,95155.94
2023-01-13T22:38:01.712Z,95158.56
2023-01-13T22:40:31.717Z,95158.97
2023-01-13T22:42:58.699Z,95156.69
2023-01-13T22:45:25.697Z,95157.34
2023-01-13T22:47:52.693Z,95158.28
2023-01-13T22:50:19.584Z,95163.78
2023-01-13T22:52:49.318Z,95153.16
2023-01-13T22:55:16.247Z,95152.53
2023-01-13T22:57:47.962Z,95160.44
2023-01-13T23:00:16.376Z,95165.94
2023-01-13T23:02:43.427Z,95161.53
2023-01-13T23:05:10.143Z,95169.63
2023-01-13T23:07:37.180Z,95164.03
2023-01-13T23:10:04.390Z,95169.41
2023-01-13T23:12:31.491Z,95167.16
2023-01-13T23:14:58.486Z,95167.78
2023-01-13T23:17:25.301Z,95166.44
2023-01-13T23:19:55.342Z,95153.44
2023-01-13T23:22:22.088Z,95154.72
2023-01-13T23:24:49.110Z,95154.72
2023-01-13T23:27:16.147Z,95150.69
2023-01-13T23:29:43.159Z,95141.47
2023-01-13T23:32:09.920Z,95130.50
2023-01-13T23:34:36.970Z,95128.34
2023-01-13T23:37:03.663Z,95133.91
2023-01-13T23:39:30.689Z,95141.75
2023-01-13T23:41:58.641Z,95134.09
2023-01-13T23:44:26.842Z,95135.97
2023-01-13T23:46:56.428Z,95125.53
2023-01-13T23:49:23.885Z,95118.50
2023-01-13T23:51:51.314Z,95119.78
2023-01-13T23:54:18.106Z,95116.56
2023-01-13T23:56:44.851Z,95123.47
2023-01-13T23:59:13.058Z,95130.47
